sensor_id;sensor_type;location;lat;lon;timestamp;temperature;humidity
68746;SHT31;73143;45.456;11.064;2024-02-15T11:42:28;14.78;59.90
68746;SHT31;73143;45.456;11.064;2024-02-15T11:45:09;14.77;59.90
68746;SHT31;73143;45.456;11.064;2024-02-15T11:47:48;14.77;59.74
68746;SHT31;73143;45.456;11.064;2024-02-15T11:50:27;14.77;59.57
68746;SHT31;73143;45.456;11.064;2024-02-15T11:53:09;14.75;59.72
68746;SHT31;73143;45.456;11.064;2024-02-15T11:55:46;14.75;59.84
68746;SHT31;73143;45.456;11.064;2024-02-15T11:58:32;14.75;59.95
68746;SHT31;73143;45.456;11.064;2024-02-15T12:01:21;14.77;59.79
68746;SHT31;73143;45.456;11.064;2024-02-15T12:04:15;14.77;59.25
68746;SHT31;73143;45.456;11.064;2024-02-15T12:07:11;14.76;59.40
68746;SHT31;73143;45.456;11.064;2024-02-15T12:10:08;14.77;59.30
68746;SHT31;73143;45.456;11.064;2024-02-15T12:13:04;14.82;59.37
68746;SHT31;73143;45.456;11.064;2024-02-15T12:15:59;14.84;59.01
68746;SHT31;73143;45.456;11.064;2024-02-15T12:18:56;14.83;58.99
68746;SHT31;73143;45.456;11.064;2024-02-15T12:21:33;14.82;59.19
68746;SHT31;73143;45.456;11.064;2024-02-15T12:24:11;14.82;59.26
68746;SHT31;73143;45.456;11.064;2024-02-15T12:26:51;14.86;59.46
68746;SHT31;73143;45.456;11.064;2024-02-15T12:29:34;14.91;59.69
68746;SHT31;73143;45.456;11.064;2024-02-15T12:32:11;14.98;59.56
68746;SHT31;73143;45.456;11.064;2024-02-15T12:35:11;15.03;59.26
68746;SHT31;73143;45.456;11.064;2024-02-15T12:38:01;15.09;59.32
68746;SHT31;73143;45.456;11.064;2024-02-15T12:40:39;15.12;59.59
68746;SHT31;73143;45.456;11.064;2024-02-15T12:43:17;15.11;59.40
68746;SHT31;73143;45.456;11.064;2024-02-15T12:45:53;15.12;59.72
68746;SHT31;73143;45.456;11.064;2024-02-15T12:48:30;15.16;59.51
68746;SHT31;73143;45.456;11.064;2024-02-15T12:51:14;15.19;59.52
68746;SHT31;73143;45.456;11.064;2024-02-15T12:53:51;15.22;59.22
68746;SHT31;73143;45.456;11.064;2024-02-15T12:56:43;15.24;58.63
68746;SHT31;73143;45.456;11.064;2024-02-15T12:59:20;15.25;58.78
68746;SHT31;73143;45.456;11.064;2024-02-15T13:01:58;15.27;58.92
68746;SHT31;73143;45.456;11.064;2024-02-15T13:04:35;15.28;58.62
68746;SHT31;73143;45.456;11.064;2024-02-15T13:07:12;15.30;58.69
68746;SHT31;73143;45.456;11.064;2024-02-15T13:09:49;15.31;58.40
68746;SHT31;73143;45.456;11.064;2024-02-15T13:12:26;15.29;58.34
68746;SHT31;73143;45.456;11.064;2024-02-15T13:15:05;15.30;58.41
68746;SHT31;73143;45.456;11.064;2024-02-15T13:17:45;15.28;58.41
68746;SHT31;73143;45.456;11.064;2024-02-15T13:20:22;15.27;58.52
68746;SHT31;73143;45.456;11.064;2024-02-15T13:23:02;15.26;58.58
68746;SHT31;73143;45.456;11.064;2024-02-15T13:25:44;15.22;58.62
68746;SHT31;73143;45.456;11.064;2024-02-15T13:28:21;15.20;58.83
68746;SHT31;73143;45.456;11.064;2024-02-15T13:30:58;15.19;58.91
68746;SHT31;73143;45.456;11.064;2024-02-15T13:33:36;15.15;58.87
68746;SHT31;73143;45.456;11.064;2024-02-15T13:36:13;15.10;58.79
68746;SHT31;73143;45.456;11.064;2024-02-15T13:38:51;15.10;58.72
68746;SHT31;73143;45.456;11.064;2024-02-15T13:41:27;15.12;58.67
68746;SHT31;73143;45.456;11.064;2024-02-15T13:44:05;15.12;58.44
68746;SHT31;73143;45.456;11.064;2024-02-15T13:46:41;15.12;58.46
68746;SHT31;73143;45.456;11.064;2024-02-15T13:49:20;15.12;58.77
68746;SHT31;73143;45.456;11.064;2024-02-15T13:52:01;15.12;58.91
68746;SHT31;73143;45.456;11.064;2024-02-15T13:54:40;15.11;58.52
68746;SHT31;73143;45.456;11.064;2024-02-15T13:57:17;15.06;58.30
68746;SHT31;73143;45.456;11.064;2024-02-15T13:59:55;15.05;58.33
68746;SHT31;73143;45.456;11.064;2024-02-15T14:02:39;15.01;58.32
68746;SHT31;73143;45.456;11.064;2024-02-15T14:05:17;15.00;58.55
68746;SHT31;73143;45.456;11.064;2024-02-15T14:07:57;14.96;58.34
68746;SHT31;73143;45.456;11.064;2024-02-15T14:10:35;14.94;58.35
68746;SHT31;73143;45.456;11.064;2024-02-15T14:13:13;14.93;58.45
68746;SHT31;73143;45.456;11.064;2024-02-15T14:15:51;14.90;58.35
68746;SHT31;73143;45.456;11.064;2024-02-15T14:18:29;14.89;58.17
68746;SHT31;73143;45.456;11.064;2024-02-15T14:21:06;14.88;58.10
68746;SHT31;73143;45.456;11.064;2024-02-15T14:23:45;14.89;58.36
68746;SHT31;73143;45.456;11.064;2024-02-15T14:26:22;14.92;58.31
68746;SHT31;73143;45.456;11.064;2024-02-15T14:29:04;14.93;58.35
68746;SHT31;73143;45.456;11.064;2024-02-15T14:31:43;14.94;58.09
68746;SHT31;73143;45.456;11.064;2024-02-15T14:34:43;14.94;57.93
68746;SHT31;73143;45.456;11.064;2024-02-15T14:37:20;14.94;57.90
68746;SHT31;73143;45.456;11.064;2024-02-15T14:39:57;14.94;57.98
68746;SHT31;73143;45.456;11.064;2024-02-15T14:42:35;14.95;58.11
68746;SHT31;73143;45.456;11.064;2024-02-15T14:45:24;14.97;57.94
68746;SHT31;73143;45.456;11.064;2024-02-15T14:48:05;14.95;57.95
68746;SHT31;73143;45.456;11.064;2024-02-15T14:50:43;14.91;57.78
68746;SHT31;73143;45.456;11.064;2024-02-15T14:53:21;14.88;57.93
68746;SHT31;73143;45.456;11.064;2024-02-15T14:55:56;14.87;57.92
68746;SHT31;73143;45.456;11.064;2024-02-15T14:58:35;14.89;58.09
68746;SHT31;73143;45.456;11.064;2024-02-15T15:01:12;14.92;57.86
68746;SHT31;73143;45.456;11.064;2024-02-15T15:03:57;14.94;57.78
68746;SHT31;73143;45.456;11.064;2024-02-15T15:06:36;14.94;57.76
68746;SHT31;73143;45.456;11.064;2024-02-15T15:09:32;14.93;57.79
68746;SHT31;73143;45.456;11.064;2024-02-15T15:12:27;14.90;57.86
68746;SHT31;73143;45.456;11.064;2024-02-15T15:15:10;14.88;58.08
68746;SHT31;73143;45.456;11.064;2024-02-15T15:17:49;14.88;57.99
68746;SHT31;73143;45.456;11.064;2024-02-15T15:20:26;14.89;58.09
68746;SHT31;73143;45.456;11.064;2024-02-15T15:23:04;14.89;58.14
68746;SHT31;73143;45.456;11.064;2024-02-15T15:25:42;14.87;57.74
68746;SHT31;73143;45.456;11.064;2024-02-15T15:28:20;14.82;57.46
68746;SHT31;73143;45.456;11.064;2024-02-15T15:30:57;14.77;57.73
68746;SHT31;73143;45.456;11.064;2024-02-15T15:33:33;14.72;57.91
68746;SHT31;73143;45.456;11.064;2024-02-15T15:36:10;14.68;57.92
68746;SHT31;73143;45.456;11.064;2024-02-15T15:38:49;14.66;58.18
68746;SHT31;73143;45.456;11.064;2024-02-15T15:41:27;14.62;57.99
68746;SHT31;73143;45.456;11.064;2024-02-15T15:44:05;14.56;58.13
68746;SHT31;73143;45.456;11.064;2024-02-15T15:46:41;14.49;58.51
68746;SHT31;73143;45.456;11.064;2024-02-15T15:49:23;14.44;58.72
68746;SHT31;73143;45.456;11.064;2024-02-15T15:52:00;14.38;58.89
68746;SHT31;73143;45.456;11.064;2024-02-15T15:54:41;14.33;59.16
68746;SHT31;73143;45.456;11.064;2024-02-15T15:57:17;14.27;59.31
68746;SHT31;73143;45.456;11.064;2024-02-15T15:59:58;14.21;59.43
68746;SHT31;73143;45.456;11.064;2024-02-15T16:02:41;14.17;59.52
68746;SHT31;73143;45.456;11.064;2024-02-15T16:05:20;14.13;59.62
68746;SHT31;73143;45.456;11.064;2024-02-15T16:08:01;14.09;59.61
68746;SHT31;73143;45.456;11.064;2024-02-15T16:10:40;14.04;59.83
68746;SHT31;73143;45.456;11.064;2024-02-15T16:13:18;13.99;59.84
68746;SHT31;73143;45.456;11.064;2024-02-15T16:16:04;13.95;60.03
68746;SHT31;73143;45.456;11.064;2024-02-15T16:18:48;13.90;60.08
68746;SHT31;73143;45.456;11.064;2024-02-15T16:21:31;13.87;60.06
68746;SHT31;73143;45.456;11.064;2024-02-15T16:24:17;13.83;60.14
68746;SHT31;73143;45.456;11.064;2024-02-15T16:26:59;13.79;60.15
68746;SHT31;73143;45.456;11.064;2024-02-15T16:29:39;13.76;60.20
68746;SHT31;73143;45.456;11.064;2024-02-15T16:32:22;13.73;60.45
68746;SHT31;73143;45.456;11.064;2024-02-15T16:35:00;13.70;60.46
68746;SHT31;73143;45.456;11.064;2024-02-15T16:37:42;13.67;60.58
68746;SHT31;73143;45.456;11.064;2024-02-15T16:40:23;13.64;60.87
68746;SHT31;73143;45.456;11.064;2024-02-15T16:43:06;13.61;61.12
68746;SHT31;73143;45.456;11.064;2024-02-15T16:45:49;13.58;61.23
68746;SHT31;73143;45.456;11.064;2024-02-15T16:48:26;13.55;61.50
68746;SHT31;73143;45.456;11.064;2024-02-15T16:51:04;13.50;61.82
68746;SHT31;73143;45.456;11.064;2024-02-15T16:53:45;13.46;62.32
68746;SHT31;73143;45.456;11.064;2024-02-15T16:56:27;13.43;62.60
68746;SHT31;73143;45.456;11.064;2024-02-15T16:59:09;13.39;62.94
68746;SHT31;73143;45.456;11.064;2024-02-15T17:01:54;13.33;63.19
68746;SHT31;73143;45.456;11.064;2024-02-15T17:04:36;13.27;63.47
68746;SHT31;73143;45.456;11.064;2024-02-15T17:07:19;13.20;63.69
68746;SHT31;73143;45.456;11.064;2024-02-15T17:09:56;13.12;63.87
68746;SHT31;73143;45.456;11.064;2024-02-15T17:12:35;13.04;64.18
68746;SHT31;73143;45.456;11.064;2024-02-15T17:15:13;12.97;64.42
68746;SHT31;73143;45.456;11.064;2024-02-15T17:17:55;12.88;64.68
68746;SHT31;73143;45.456;11.064;2024-02-15T17:20:33;12.79;64.87
68746;SHT31;73143;45.456;11.064;2024-02-15T17:23:11;12.70;65.09
68746;SHT31;73143;45.456;11.064;2024-02-15T17:25:57;12.57;65.32
68746;SHT31;73143;45.456;11.064;2024-02-15T17:28:34;12.43;65.63
68746;SHT31;73143;45.456;11.064;2024-02-15T17:31:17;12.30;65.94
68746;SHT31;73143;45.456;11.064;2024-02-15T17:33:59;12.21;66.14
68746;SHT31;73143;45.456;11.064;2024-02-15T17:36:44;12.13;66.27
68746;SHT31;73143;45.456;11.064;2024-02-15T17:39:27;12.05;66.43
68746;SHT31;73143;45.456;11.064;2024-02-15T17:42:06;12.00;66.55
68746;SHT31;73143;45.456;11.064;2024-02-15T17:44:58;11.95;66.63
68746;SHT31;73143;45.456;11.064;2024-02-15T17:47:39;11.84;66.81
68746;SHT31;73143;45.456;11.064;2024-02-15T17:50:25;11.72;67.06
68746;SHT31;73143;45.456;11.064;2024-02-15T17:53:02;11.63;67.32
68746;SHT31;73143;45.456;11.064;2024-02-15T17:55:52;11.54;67.50
68746;SHT31;73143;45.456;11.064;2024-02-15T17:58:29;11.47;67.84
68746;SHT31;73143;45.456;11.064;2024-02-15T18:01:07;11.40;68.23
68746;SHT31;73143;45.456;11.064;2024-02-15T18:03:45;11.34;68.31
68746;SHT31;73143;45.456;11.064;2024-02-15T18:06:29;11.29;68.50
68746;SHT31;73143;45.456;11.064;2024-02-15T18:09:12;11.28;68.28
68746;SHT31;73143;45.456;11.064;2024-02-15T18:11:49;11.28;68.28
68746;SHT31;73143;45.456;11.064;2024-02-15T18:14:36;11.27;68.35
68746;SHT31;73143;45.456;11.064;2024-02-15T18:17:14;11.28;68.38
68746;SHT31;73143;45.456;11.064;2024-02-15T18:19:55;11.27;68.53
68746;SHT31;73143;45.456;11.064;2024-02-15T18:22:36;11.23;68.66
68746;SHT31;73143;45.456;11.064;2024-02-15T18:25:13;11.18;68.77
68746;SHT31;73143;45.456;11.064;2024-02-15T18:27:51;11.16;68.77
68746;SHT31;73143;45.456;11.064;2024-02-15T18:30:29;11.15;68.77
68746;SHT31;73143;45.456;11.064;2024-02-15T18:33:12;11.13;68.76
68746;SHT31;73143;45.456;11.064;2024-02-15T18:35:53;11.10;68.80
68746;SHT31;73143;45.456;11.064;2024-02-15T18:38:31;11.07;68.96
68746;SHT31;73143;45.456;11.064;2024-02-15T18:41:10;11.05;69.02
68746;SHT31;73143;45.456;11.064;2024-02-15T18:43:47;11.04;69.11
68746;SHT31;73143;45.456;11.064;2024-02-15T18:46:24;11.01;69.12
68746;SHT31;73143;45.456;11.064;2024-02-15T18:49:02;10.97;69.25
68746;SHT31;73143;45.456;11.064;2024-02-15T18:51:59;10.95;69.30
68746;SHT31;73143;45.456;11.064;2024-02-15T18:54:40;10.93;69.30
68746;SHT31;73143;45.456;11.064;2024-02-15T18:57:21;10.95;69.30
68746;SHT31;73143;45.456;11.064;2024-02-15T19:00:01;10.95;69.30
68746;SHT31;73143;45.456;11.064;2024-02-15T19:03:03;10.94;69.30
68746;SHT31;73143;45.456;11.064;2024-02-15T19:05:39;10.94;69.31
68746;SHT31;73143;45.456;11.064;2024-02-15T19:08:20;10.91;69.39
68746;SHT31;73143;45.456;11.064;2024-02-15T19:10:56;10.87;69.57
68746;SHT31;73143;45.456;11.064;2024-02-15T19:13:33;10.81;69.61
68746;SHT31;73143;45.456;11.064;2024-02-15T19:16:12;10.79;69.68
68746;SHT31;73143;45.456;11.064;2024-02-15T19:18:59;10.75;69.72
68746;SHT31;73143;45.456;11.064;2024-02-15T19:21:39;10.71;69.86
68746;SHT31;73143;45.456;11.064;2024-02-15T19:24:21;10.67;70.04
68746;SHT31;73143;45.456;11.064;2024-02-15T19:27:03;10.64;70.18
68746;SHT31;73143;45.456;11.064;2024-02-15T19:29:40;10.60;70.23
68746;SHT31;73143;45.456;11.064;2024-02-15T19:32:17;10.56;70.35
68746;SHT31;73143;45.456;11.064;2024-02-15T19:34:57;10.53;70.38
68746;SHT31;73143;45.456;11.064;2024-02-15T19:37:35;10.52;70.43
68746;SHT31;73143;45.456;11.064;2024-02-15T19:40:15;10.48;70.55
68746;SHT31;73143;45.456;11.064;2024-02-15T19:42:52;10.44;70.60
68746;SHT31;73143;45.456;11.064;2024-02-15T19:45:29;10.43;70.67
68746;SHT31;73143;45.456;11.064;2024-02-15T19:48:10;10.41;70.73
68746;SHT31;73143;45.456;11.064;2024-02-15T19:50:49;10.41;70.76
68746;SHT31;73143;45.456;11.064;2024-02-15T19:53:26;10.39;70.80
68746;SHT31;73143;45.456;11.064;2024-02-15T19:56:04;10.37;70.80
68746;SHT31;73143;45.456;11.064;2024-02-15T19:58:44;10.35;70.81
68746;SHT31;73143;45.456;11.064;2024-02-15T20:01:25;10.34;70.81
68746;SHT31;73143;45.456;11.064;2024-02-15T20:04:03;10.32;70.87
68746;SHT31;73143;45.456;11.064;2024-02-15T20:06:43;10.30;70.90
68746;SHT31;73143;45.456;11.064;2024-02-15T20:09:21;10.27;71.00
68746;SHT31;73143;45.456;11.064;2024-02-15T20:12:14;10.23;71.04
68746;SHT31;73143;45.456;11.064;2024-02-15T20:14:52;10.21;71.12
68746;SHT31;73143;45.456;11.064;2024-02-15T20:17:29;10.20;71.17
68746;SHT31;73143;45.456;11.064;2024-02-15T20:20:08;10.19;71.11
68746;SHT31;73143;45.456;11.064;2024-02-15T20:22:47;10.17;71.21
68746;SHT31;73143;45.456;11.064;2024-02-15T20:25:25;10.13;71.30
68746;SHT31;73143;45.456;11.064;2024-02-15T20:28:02;10.11;71.35
68746;SHT31;73143;45.456;11.064;2024-02-15T20:30:41;10.09;71.40
68746;SHT31;73143;45.456;11.064;2024-02-15T20:33:18;10.08;71.40
68746;SHT31;73143;45.456;11.064;2024-02-15T20:35:56;10.06;71.41
68746;SHT31;73143;45.456;11.064;2024-02-15T20:38:34;10.05;71.40
68746;SHT31;73143;45.456;11.064;2024-02-15T20:41:11;10.03;71.40
68746;SHT31;73143;45.456;11.064;2024-02-15T20:43:48;10.03;71.38
68746;SHT31;73143;45.456;11.064;2024-02-15T20:46:30;10.00;71.48
68746;SHT31;73143;45.456;11.064;2024-02-15T20:49:06;9.98;71.53
68746;SHT31;73143;45.456;11.064;2024-02-15T20:51:44;9.97;71.42
68746;SHT31;73143;45.456;11.064;2024-02-15T20:54:20;9.95;71.41
68746;SHT31;73143;45.456;11.064;2024-02-15T20:56:58;9.94;71.40
68746;SHT31;73143;45.456;11.064;2024-02-15T20:59:37;9.91;71.42
68746;SHT31;73143;45.456;11.064;2024-02-15T21:02:13;9.90;71.42
68746;SHT31;73143;45.456;11.064;2024-02-15T21:04:52;9.86;71.45
68746;SHT31;73143;45.456;11.064;2024-02-15T21:07:29;9.86;71.47
68746;SHT31;73143;45.456;11.064;2024-02-15T21:10:08;9.85;71.50
68746;SHT31;73143;45.456;11.064;2024-02-15T21:12:46;9.84;71.50
68746;SHT31;73143;45.456;11.064;2024-02-15T21:15:22;9.81;71.50
68746;SHT31;73143;45.456;11.064;2024-02-15T21:18:00;9.79;71.49
68746;SHT31;73143;45.456;11.064;2024-02-15T21:20:39;9.77;71.43
68746;SHT31;73143;45.456;11.064;2024-02-15T21:23:17;9.77;71.47
68746;SHT31;73143;45.456;11.064;2024-02-15T21:25:56;9.74;71.43
68746;SHT31;73143;45.456;11.064;2024-02-15T21:28:33;9.74;71.41
68746;SHT31;73143;45.456;11.064;2024-02-15T21:31:13;9.74;71.39
68746;SHT31;73143;45.456;11.064;2024-02-15T21:33:53;9.72;71.37
68746;SHT31;73143;45.456;11.064;2024-02-15T21:36:37;9.69;71.40
68746;SHT31;73143;45.456;11.064;2024-02-15T21:39:13;9.67;71.40
68746;SHT31;73143;45.456;11.064;2024-02-15T21:41:55;9.65;71.41
68746;SHT31;73143;45.456;11.064;2024-02-15T21:44:31;9.64;71.40
68746;SHT31;73143;45.456;11.064;2024-02-15T21:47:08;9.62;71.40
68746;SHT31;73143;45.456;11.064;2024-02-15T21:49:45;9.61;71.30
68746;SHT31;73143;45.456;11.064;2024-02-15T21:52:22;9.59;71.23
68746;SHT31;73143;45.456;11.064;2024-02-15T21:54:59;9.55;71.27
68746;SHT31;73143;45.456;11.064;2024-02-15T21:57:38;9.54;71.33
68746;SHT31;73143;45.456;11.064;2024-02-15T22:00:17;9.53;71.40
68746;SHT31;73143;45.456;11.064;2024-02-15T22:02:55;9.53;71.35
68746;SHT31;73143;45.456;11.064;2024-02-15T22:05:33;9.51;71.30
68746;SHT31;73143;45.456;11.064;2024-02-15T22:08:10;9.51;71.30
68746;SHT31;73143;45.456;11.064;2024-02-15T22:10:48;9.51;71.28
68746;SHT31;73143;45.456;11.064;2024-02-15T22:13:24;9.51;71.21
68746;SHT31;73143;45.456;11.064;2024-02-15T22:16:01;9.52;71.20
68746;SHT31;73143;45.456;11.064;2024-02-15T22:18:42;9.53;71.21
68746;SHT31;73143;45.456;11.064;2024-02-15T22:21:19;9.52;71.20
68746;SHT31;73143;45.456;11.064;2024-02-15T22:23:56;9.53;71.20
68746;SHT31;73143;45.456;11.064;2024-02-15T22:26:33;9.53;71.10
68746;SHT31;73143;45.456;11.064;2024-02-15T22:29:10;9.52;71.05
68746;SHT31;73143;45.456;11.064;2024-02-15T22:31:46;9.48;71.01
68746;SHT31;73143;45.456;11.064;2024-02-15T22:34:23;9.48;71.07
68746;SHT31;73143;45.456;11.064;2024-02-15T22:37:00;9.44;71.10
68746;SHT31;73143;45.456;11.064;2024-02-15T22:39:37;9.43;71.15
68746;SHT31;73143;45.456;11.064;2024-02-15T22:42:14;9.42;71.20
68746;SHT31;73143;45.456;11.064;2024-02-15T22:44:52;9.39;71.36
68746;SHT31;73143;45.456;11.064;2024-02-15T22:47:28;9.39;71.32
68746;SHT31;73143;45.456;11.064;2024-02-15T22:50:07;9.39;71.24
68746;SHT31;73143;45.456;11.064;2024-02-15T22:52:45;9.39;71.21
68746;SHT31;73143;45.456;11.064;2024-02-15T22:55:23;9.39;71.11
68746;SHT31;73143;45.456;11.064;2024-02-15T22:58:00;9.39;71.16
68746;SHT31;73143;45.456;11.064;2024-02-15T23:00:37;9.39;71.19
68746;SHT31;73143;45.456;11.064;2024-02-15T23:03:14;9.38;71.33
68746;SHT31;73143;45.456;11.064;2024-02-15T23:05:50;9.37;71.28
68746;SHT31;73143;45.456;11.064;2024-02-15T23:08:28;9.39;71.13
68746;SHT31;73143;45.456;11.064;2024-02-15T23:11:06;9.40;71.07
68746;SHT31;73143;45.456;11.064;2024-02-15T23:13:44;9.40;70.99
68746;SHT31;73143;45.456;11.064;2024-02-15T23:16:22;9.38;70.99
68746;SHT31;73143;45.456;11.064;2024-02-15T23:19:00;9.36;71.07
68746;SHT31;73143;45.456;11.064;2024-02-15T23:21:39;9.35;71.03
68746;SHT31;73143;45.456;11.064;2024-02-15T23:24:16;9.34;71.00
68746;SHT31;73143;45.456;11.064;2024-02-15T23:26:53;9.33;70.99
68746;SHT31;73143;45.456;11.064;2024-02-15T23:29:30;9.33;71.03
68746;SHT31;73143;45.456;11.064;2024-02-15T23:32:09;9.30;70.98
68746;SHT31;73143;45.456;11.064;2024-02-15T23:34:47;9.29;71.06
68746;SHT31;73143;45.456;11.064;2024-02-15T23:37:24;9.29;71.11
68746;SHT31;73143;45.456;11.064;2024-02-15T23:40:17;9.31;71.19
68746;SHT31;73143;45.456;11.064;2024-02-15T23:42:55;9.32;71.20
68746;SHT31;73143;45.456;11.064;2024-02-15T23:45:31;9.32;71.20
68746;SHT31;73143;45.456;11.064;2024-02-15T23:48:09;9.33;71.20
68746;SHT31;73143;45.456;11.064;2024-02-15T23:50:46;9.34;71.24
68746;SHT31;73143;45.456;11.064;2024-02-15T23:53:23;9.34;71.30
68746;SHT31;73143;45.456;11.064;2024-02-15T23:56:00;9.33;71.36
68746;SHT31;73143;45.456;11.064;2024-02-15T23:58:39;9.33;71.38
